N062SB PHJH-PHNY

Flight info

Callsign N062SB
Flight time 0h 14m
Altitude 4000
Route PHNY
Aircraft DA62/L-SDFGRY/C

Departure

Time 2026-04-26 00:56
Airport Kapalua Airport (PHJH)

Arrival

Time 2026-04-26 01:10
Airport Lanai Airport (PHNY)
Time Latitude Longitude Altitude Speed Heading
2026-04-26 00:45 20.96215 -156.67508 246 ft 0 kts 294°
2026-04-26 00:53 20.96238 -156.67492 246 ft 14 kts 69°
2026-04-26 00:53 20.96279 -156.67364 254 ft 20 kts 73°
2026-04-26 00:54 20.96407 -156.67244 260 ft 30 kts 29°
2026-04-26 00:54 20.96605 -156.67140 267 ft 25 kts 13°
2026-04-26 00:54 20.96635 -156.67107 268 ft 9 kts 181°
2026-04-26 00:54 20.96425 -156.67229 261 ft 68 kts 208°
2026-04-26 00:55 20.95865 -156.67547 296 ft 106 kts 209°
2026-04-26 00:55 20.95127 -156.67933 319 ft 130 kts 207°
2026-04-26 00:55 20.94336 -156.68362 561 ft 127 kts 202°
2026-04-26 00:55 20.93548 -156.68785 807 ft 129 kts 207°
2026-04-26 00:56 20.92746 -156.69226 1064 ft 131 kts 209°
2026-04-26 00:56 20.91915 -156.69688 1313 ft 137 kts 207°
2026-04-26 00:56 20.91076 -156.70157 1548 ft 134 kts 209°
2026-04-26 00:56 20.90251 -156.70627 1799 ft 134 kts 207°
2026-04-26 00:57 20.89432 -156.71085 2048 ft 133 kts 206°
2026-04-26 00:57 20.88588 -156.71546 2303 ft 139 kts 205°
2026-04-26 00:57 20.87717 -156.72034 2552 ft 144 kts 206°
2026-04-26 00:57 20.86831 -156.72532 2796 ft 148 kts 205°
2026-04-26 00:58 20.85913 -156.73053 3048 ft 151 kts 205°
2026-04-26 00:58 20.84973 -156.73587 3296 ft 154 kts 205°
2026-04-26 00:58 20.84019 -156.74135 3544 ft 157 kts 205°
2026-04-26 00:58 20.83055 -156.74689 3787 ft 157 kts 205°
2026-04-26 00:59 20.82092 -156.75245 4031 ft 157 kts 205°
2026-04-26 00:59 20.81091 -156.75825 4073 ft 170 kts 205°
2026-04-26 00:59 20.80017 -156.76448 4078 ft 180 kts 206°
2026-04-26 00:59 20.78910 -156.77091 3973 ft 187 kts 208°
2026-04-26 01:00 20.77769 -156.77758 3727 ft 187 kts 208°
2026-04-26 01:00 20.76622 -156.78429 3487 ft 189 kts 209°
2026-04-26 01:00 20.75472 -156.79105 3243 ft 189 kts 209°
2026-04-26 01:00 20.74321 -156.79785 2996 ft 189 kts 209°
2026-04-26 01:01 20.73175 -156.80463 2761 ft 188 kts 210°
2026-04-26 01:01 20.72062 -156.81127 2692 ft 177 kts 210°
2026-04-26 01:01 20.71016 -156.81756 2685 ft 168 kts 210°
2026-04-26 01:01 20.70252 -156.82625 2666 ft 162 kts 235°
2026-04-26 01:02 20.69392 -156.83384 2667 ft 160 kts 214°
2026-04-26 01:02 20.68422 -156.84034 2664 ft 170 kts 212°
2026-04-26 01:02 20.67388 -156.84711 2676 ft 178 kts 212°
2026-04-26 01:02 20.66319 -156.85414 2668 ft 182 kts 212°
2026-04-26 01:03 20.65235 -156.86128 2667 ft 184 kts 213°
2026-04-26 01:03 20.64139 -156.86847 2668 ft 186 kts 212°
2026-04-26 01:03 20.63033 -156.87568 2665 ft 187 kts 212°
2026-04-26 01:03 20.61991 -156.88387 2657 ft 187 kts 232°
2026-04-26 01:04 20.61586 -156.89658 2652 ft 183 kts 270°
2026-04-26 01:04 20.61647 -156.91000 2653 ft 184 kts 276°
2026-04-26 01:04 20.61741 -156.92368 2653 ft 185 kts 276°
2026-04-26 01:04 20.61840 -156.93745 2596 ft 189 kts 276°
2026-04-26 01:05 20.61940 -156.95138 2588 ft 187 kts 276°
2026-04-26 01:05 20.62084 -156.96513 2582 ft 186 kts 288°
2026-04-26 01:05 20.62833 -156.97576 2572 ft 180 kts 329°
2026-04-26 01:05 20.63978 -156.98090 2579 ft 178 kts 343°
2026-04-26 01:06 20.65146 -156.98516 2582 ft 177 kts 343°
2026-04-26 01:06 20.66315 -156.98937 2585 ft 177 kts 343°
2026-04-26 01:06 20.67469 -156.99350 2586 ft 177 kts 343°
2026-04-26 01:06 20.68639 -156.99769 2589 ft 177 kts 343°
2026-04-26 01:07 20.69809 -157.00190 2591 ft 177 kts 343°
2026-04-26 01:07 20.70979 -157.00607 2593 ft 177 kts 343°
2026-04-26 01:07 20.72162 -157.00968 2588 ft 176 kts 357°
2026-04-26 01:07 20.73318 -157.00653 2603 ft 173 kts 40°
2026-04-26 01:08 20.74160 -156.99688 2305 ft 175 kts 43°
2026-04-26 01:08 20.74967 -156.98871 2018 ft 138 kts 46°
2026-04-26 01:08 20.75523 -156.98259 1808 ft 99 kts 45°
2026-04-26 01:08 20.75991 -156.97787 1765 ft 88 kts 42°
2026-04-26 01:09 20.76404 -156.97369 1766 ft 82 kts 43°
2026-04-26 01:09 20.76850 -156.96915 1683 ft 93 kts 42°
2026-04-26 01:09 20.77326 -156.96427 1544 ft 94 kts 43°
2026-04-26 01:09 20.77784 -156.95951 1415 ft 89 kts 43°
2026-04-26 01:10 20.78169 -156.95550 1299 ft 61 kts 41°
2026-04-26 01:10 20.78394 -156.95320 1299 ft 43 kts 44°
2026-04-26 01:10 20.78611 -156.95096 1303 ft 45 kts 44°
2026-04-26 01:10 20.78813 -156.94889 1303 ft 25 kts 43°
2026-04-26 01:11 20.78884 -156.94886 1302 ft 11 kts 303°
2026-04-26 01:11 20.78909 -156.94960 1302 ft 15 kts 226°
2026-04-26 01:11 20.78831 -156.95044 1304 ft 10 kts 232°
2026-04-26 01:11 20.78886 -156.95062 1304 ft 16 kts 18°
2026-04-26 01:12 20.78967 -156.95002 1303 ft 0 kts 43°